sensor_id;sensor_type;location;lat;lon;timestamp;temperature;humidity
12688;DHT22;6408;59.388;17.798;2022-09-29T00:00:20;8.80;99.90
12688;DHT22;6408;59.388;17.798;2022-09-29T00:02:47;8.70;99.90
12688;DHT22;6408;59.388;17.798;2022-09-29T00:05:14;8.80;99.90
12688;DHT22;6408;59.388;17.798;2022-09-29T00:07:41;8.70;99.90
12688;DHT22;6408;59.388;17.798;2022-09-29T00:10:09;8.60;99.90
12688;DHT22;6408;59.388;17.798;2022-09-29T00:12:37;8.60;99.90
12688;DHT22;6408;59.388;17.798;2022-09-29T00:15:05;8.60;99.90
12688;DHT22;6408;59.388;17.798;2022-09-29T00:17:32;8.60;99.90
12688;DHT22;6408;59.388;17.798;2022-09-29T00:19:59;8.60;99.90
12688;DHT22;6408;59.388;17.798;2022-09-29T00:22:26;8.50;99.90
12688;DHT22;6408;59.388;17.798;2022-09-29T00:24:53;8.50;99.90
12688;DHT22;6408;59.388;17.798;2022-09-29T00:27:21;8.50;99.90
12688;DHT22;6408;59.388;17.798;2022-09-29T00:29:49;8.50;99.90
12688;DHT22;6408;59.388;17.798;2022-09-29T00:32:15;8.50;99.90
12688;DHT22;6408;59.388;17.798;2022-09-29T00:34:43;8.40;99.90
12688;DHT22;6408;59.388;17.798;2022-09-29T00:37:09;8.40;99.90
12688;DHT22;6408;59.388;17.798;2022-09-29T00:39:36;8.30;99.90
12688;DHT22;6408;59.388;17.798;2022-09-29T00:42:04;8.40;99.90
12688;DHT22;6408;59.388;17.798;2022-09-29T00:44:53;8.30;99.90
12688;DHT22;6408;59.388;17.798;2022-09-29T00:47:21;8.30;99.90
12688;DHT22;6408;59.388;17.798;2022-09-29T00:49:52;8.30;99.90
12688;DHT22;6408;59.388;17.798;2022-09-29T00:52:25;8.30;99.90
12688;DHT22;6408;59.388;17.798;2022-09-29T00:54:56;8.20;99.90
12688;DHT22;6408;59.388;17.798;2022-09-29T00:57:26;8.20;99.90
12688;DHT22;6408;59.388;17.798;2022-09-29T00:59:57;8.20;99.90
12688;DHT22;6408;59.388;17.798;2022-09-29T01:02:27;8.10;99.90
12688;DHT22;6408;59.388;17.798;2022-09-29T01:04:56;8.10;99.90
12688;DHT22;6408;59.388;17.798;2022-09-29T01:07:25;8.10;99.90
12688;DHT22;6408;59.388;17.798;2022-09-29T01:09:54;8.10;99.90
12688;DHT22;6408;59.388;17.798;2022-09-29T01:12:23;8.10;99.90
12688;DHT22;6408;59.388;17.798;2022-09-29T01:14:51;8.10;99.90
12688;DHT22;6408;59.388;17.798;2022-09-29T01:17:21;8.10;99.90
12688;DHT22;6408;59.388;17.798;2022-09-29T01:19:57;8.10;99.90
12688;DHT22;6408;59.388;17.798;2022-09-29T01:22:53;8.10;99.90
12688;DHT22;6408;59.388;17.798;2022-09-29T01:25:47;8.00;99.90
12688;DHT22;6408;59.388;17.798;2022-09-29T01:28:34;8.00;99.90
12688;DHT22;6408;59.388;17.798;2022-09-29T01:31:16;7.90;99.90
12688;DHT22;6408;59.388;17.798;2022-09-29T01:33:51;7.90;99.90
12688;DHT22;6408;59.388;17.798;2022-09-29T01:36:25;7.90;99.90
12688;DHT22;6408;59.388;17.798;2022-09-29T01:39:04;8.00;99.90
12688;DHT22;6408;59.388;17.798;2022-09-29T01:41:37;7.90;99.90
12688;DHT22;6408;59.388;17.798;2022-09-29T01:44:12;7.90;99.90
12688;DHT22;6408;59.388;17.798;2022-09-29T01:46:46;7.90;99.90
12688;DHT22;6408;59.388;17.798;2022-09-29T01:49:15;7.90;99.90
12688;DHT22;6408;59.388;17.798;2022-09-29T01:51:48;7.90;99.90
12688;DHT22;6408;59.388;17.798;2022-09-29T01:54:20;7.90;99.90
12688;DHT22;6408;59.388;17.798;2022-09-29T01:56:51;7.90;99.90
12688;DHT22;6408;59.388;17.798;2022-09-29T01:59:24;7.80;99.90
12688;DHT22;6408;59.388;17.798;2022-09-29T02:01:57;7.90;99.90
12688;DHT22;6408;59.388;17.798;2022-09-29T02:04:28;7.80;99.90
12688;DHT22;6408;59.388;17.798;2022-09-29T02:07:01;7.80;99.90
12688;DHT22;6408;59.388;17.798;2022-09-29T02:09:33;7.80;99.90
12688;DHT22;6408;59.388;17.798;2022-09-29T02:12:03;7.80;99.90
12688;DHT22;6408;59.388;17.798;2022-09-29T02:14:35;7.80;99.90
12688;DHT22;6408;59.388;17.798;2022-09-29T02:17:09;7.80;99.90
12688;DHT22;6408;59.388;17.798;2022-09-29T02:19:40;7.80;99.90
12688;DHT22;6408;59.388;17.798;2022-09-29T02:22:08;7.80;99.90
12688;DHT22;6408;59.388;17.798;2022-09-29T02:24:35;7.80;99.90
12688;DHT22;6408;59.388;17.798;2022-09-29T02:27:02;7.80;99.90
12688;DHT22;6408;59.388;17.798;2022-09-29T02:29:31;7.70;99.90
12688;DHT22;6408;59.388;17.798;2022-09-29T02:31:59;7.70;99.90
12688;DHT22;6408;59.388;17.798;2022-09-29T02:34:31;7.70;99.90
12688;DHT22;6408;59.388;17.798;2022-09-29T02:37:07;7.70;99.90
12688;DHT22;6408;59.388;17.798;2022-09-29T02:39:43;7.60;99.90
12688;DHT22;6408;59.388;17.798;2022-09-29T02:42:19;7.60;99.90
12688;DHT22;6408;59.388;17.798;2022-09-29T02:45:00;7.60;99.90
12688;DHT22;6408;59.388;17.798;2022-09-29T02:47:41;7.60;99.90
12688;DHT22;6408;59.388;17.798;2022-09-29T02:50:30;7.60;99.90
12688;DHT22;6408;59.388;17.798;2022-09-29T02:53:04;7.60;99.90
12688;DHT22;6408;59.388;17.798;2022-09-29T02:55:38;7.60;99.90
12688;DHT22;6408;59.388;17.798;2022-09-29T02:58:10;7.60;99.90
12688;DHT22;6408;59.388;17.798;2022-09-29T03:00:39;7.50;99.90
12688;DHT22;6408;59.388;17.798;2022-09-29T03:03:07;7.50;99.90
12688;DHT22;6408;59.388;17.798;2022-09-29T03:05:35;7.50;99.90
12688;DHT22;6408;59.388;17.798;2022-09-29T03:08:02;7.60;99.90
12688;DHT22;6408;59.388;17.798;2022-09-29T03:10:30;7.50;99.90
12688;DHT22;6408;59.388;17.798;2022-09-29T03:12:57;7.50;99.90
12688;DHT22;6408;59.388;17.798;2022-09-29T03:15:24;7.50;99.90
12688;DHT22;6408;59.388;17.798;2022-09-29T03:17:54;7.50;99.90
12688;DHT22;6408;59.388;17.798;2022-09-29T03:20:22;7.40;99.90
12688;DHT22;6408;59.388;17.798;2022-09-29T03:22:54;7.40;99.90
12688;DHT22;6408;59.388;17.798;2022-09-29T03:25:21;7.50;99.90
12688;DHT22;6408;59.388;17.798;2022-09-29T03:27:49;7.50;99.90
12688;DHT22;6408;59.388;17.798;2022-09-29T03:30:16;7.50;99.90
12688;DHT22;6408;59.388;17.798;2022-09-29T03:32:44;7.50;99.90
12688;DHT22;6408;59.388;17.798;2022-09-29T03:35:11;7.50;99.90
12688;DHT22;6408;59.388;17.798;2022-09-29T03:37:38;7.50;99.90
12688;DHT22;6408;59.388;17.798;2022-09-29T03:40:08;7.50;99.90
12688;DHT22;6408;59.388;17.798;2022-09-29T03:42:36;7.40;99.90
12688;DHT22;6408;59.388;17.798;2022-09-29T03:45:03;7.40;99.90
12688;DHT22;6408;59.388;17.798;2022-09-29T03:47:30;7.40;99.90
12688;DHT22;6408;59.388;17.798;2022-09-29T03:49:57;7.40;99.90
12688;DHT22;6408;59.388;17.798;2022-09-29T03:52:24;7.40;99.90
12688;DHT22;6408;59.388;17.798;2022-09-29T03:54:52;7.40;99.90
12688;DHT22;6408;59.388;17.798;2022-09-29T03:57:20;7.40;99.90
12688;DHT22;6408;59.388;17.798;2022-09-29T03:59:48;7.40;99.90
12688;DHT22;6408;59.388;17.798;2022-09-29T04:02:15;7.30;99.90
12688;DHT22;6408;59.388;17.798;2022-09-29T04:04:44;7.40;99.90
12688;DHT22;6408;59.388;17.798;2022-09-29T04:07:14;7.40;99.90
12688;DHT22;6408;59.388;17.798;2022-09-29T04:09:41;7.40;99.90
12688;DHT22;6408;59.388;17.798;2022-09-29T04:12:08;7.30;99.90
12688;DHT22;6408;59.388;17.798;2022-09-29T04:14:37;7.30;99.90
12688;DHT22;6408;59.388;17.798;2022-09-29T04:17:04;7.30;99.90
12688;DHT22;6408;59.388;17.798;2022-09-29T04:19:31;7.30;99.90
12688;DHT22;6408;59.388;17.798;2022-09-29T04:21:58;7.30;99.90
12688;DHT22;6408;59.388;17.798;2022-09-29T04:24:25;7.30;99.90
12688;DHT22;6408;59.388;17.798;2022-09-29T04:26:52;7.20;99.90
12688;DHT22;6408;59.388;17.798;2022-09-29T04:29:18;7.20;99.90
12688;DHT22;6408;59.388;17.798;2022-09-29T04:31:47;7.20;99.90
12688;DHT22;6408;59.388;17.798;2022-09-29T04:34:14;7.20;99.90
12688;DHT22;6408;59.388;17.798;2022-09-29T04:36:40;7.20;99.90
12688;DHT22;6408;59.388;17.798;2022-09-29T04:39:07;7.20;99.90
12688;DHT22;6408;59.388;17.798;2022-09-29T04:41:34;7.20;99.90
12688;DHT22;6408;59.388;17.798;2022-09-29T04:44:04;7.20;99.90
12688;DHT22;6408;59.388;17.798;2022-09-29T04:46:32;7.20;99.90
12688;DHT22;6408;59.388;17.798;2022-09-29T04:49:00;7.20;99.90
12688;DHT22;6408;59.388;17.798;2022-09-29T04:51:27;7.20;99.90
12688;DHT22;6408;59.388;17.798;2022-09-29T04:53:56;7.10;99.90
12688;DHT22;6408;59.388;17.798;2022-09-29T04:56:24;7.10;99.90
12688;DHT22;6408;59.388;17.798;2022-09-29T04:58:56;7.10;99.90
12688;DHT22;6408;59.388;17.798;2022-09-29T05:01:23;7.10;99.90
12688;DHT22;6408;59.388;17.798;2022-09-29T05:03:51;7.10;99.90
12688;DHT22;6408;59.388;17.798;2022-09-29T05:06:20;7.10;99.90
12688;DHT22;6408;59.388;17.798;2022-09-29T05:08:47;7.10;99.90
12688;DHT22;6408;59.388;17.798;2022-09-29T05:11:14;7.20;99.90
12688;DHT22;6408;59.388;17.798;2022-09-29T05:13:41;7.20;99.90
12688;DHT22;6408;59.388;17.798;2022-09-29T05:16:08;7.20;99.90
12688;DHT22;6408;59.388;17.798;2022-09-29T05:18:35;7.20;99.90
12688;DHT22;6408;59.388;17.798;2022-09-29T05:21:03;7.20;99.90
12688;DHT22;6408;59.388;17.798;2022-09-29T05:23:33;7.20;99.90
12688;DHT22;6408;59.388;17.798;2022-09-29T05:26:00;7.20;99.90
12688;DHT22;6408;59.388;17.798;2022-09-29T05:28:28;7.20;99.90
12688;DHT22;6408;59.388;17.798;2022-09-29T05:31:00;7.30;99.90
12688;DHT22;6408;59.388;17.798;2022-09-29T05:33:27;7.30;99.90
12688;DHT22;6408;59.388;17.798;2022-09-29T05:35:55;7.30;99.90
12688;DHT22;6408;59.388;17.798;2022-09-29T05:38:22;7.30;99.90
12688;DHT22;6408;59.388;17.798;2022-09-29T05:40:51;7.30;99.90
12688;DHT22;6408;59.388;17.798;2022-09-29T05:43:19;7.30;99.90
12688;DHT22;6408;59.388;17.798;2022-09-29T05:45:46;7.40;99.90
12688;DHT22;6408;59.388;17.798;2022-09-29T05:48:13;7.40;99.90
12688;DHT22;6408;59.388;17.798;2022-09-29T05:50:42;7.40;99.90
12688;DHT22;6408;59.388;17.798;2022-09-29T05:53:09;7.50;99.90
12688;DHT22;6408;59.388;17.798;2022-09-29T05:55:37;7.50;99.90
12688;DHT22;6408;59.388;17.798;2022-09-29T05:58:06;7.60;99.90
12688;DHT22;6408;59.388;17.798;2022-09-29T06:00:33;7.60;99.90
12688;DHT22;6408;59.388;17.798;2022-09-29T06:03:00;7.60;99.90
12688;DHT22;6408;59.388;17.798;2022-09-29T06:05:28;7.60;99.90
12688;DHT22;6408;59.388;17.798;2022-09-29T06:07:55;7.60;99.90
12688;DHT22;6408;59.388;17.798;2022-09-29T06:10:23;7.70;99.90
12688;DHT22;6408;59.388;17.798;2022-09-29T06:12:50;7.60;99.90
12688;DHT22;6408;59.388;17.798;2022-09-29T06:15:18;7.70;99.90
12688;DHT22;6408;59.388;17.798;2022-09-29T06:17:45;7.60;99.90
12688;DHT22;6408;59.388;17.798;2022-09-29T06:20:12;7.60;99.90
12688;DHT22;6408;59.388;17.798;2022-09-29T06:22:39;7.70;99.90
12688;DHT22;6408;59.388;17.798;2022-09-29T06:25:07;7.70;99.90
12688;DHT22;6408;59.388;17.798;2022-09-29T06:27:34;7.70;99.90
12688;DHT22;6408;59.388;17.798;2022-09-29T06:30:01;7.80;99.90
12688;DHT22;6408;59.388;17.798;2022-09-29T06:32:30;7.90;99.90
12688;DHT22;6408;59.388;17.798;2022-09-29T06:34:58;8.40;99.90
12688;DHT22;6408;59.388;17.798;2022-09-29T06:37:44;8.70;99.90
12688;DHT22;6408;59.388;17.798;2022-09-29T06:40:12;9.40;99.90
12688;DHT22;6408;59.388;17.798;2022-09-29T06:42:39;9.80;99.90
12688;DHT22;6408;59.388;17.798;2022-09-29T06:45:08;11.60;99.90
12688;DHT22;6408;59.388;17.798;2022-09-29T06:47:38;12.60;99.90
12688;DHT22;6408;59.388;17.798;2022-09-29T06:50:05;12.20;99.90
12688;DHT22;6408;59.388;17.798;2022-09-29T06:52:34;10.90;99.90
12688;DHT22;6408;59.388;17.798;2022-09-29T06:55:01;10.30;99.90
12688;DHT22;6408;59.388;17.798;2022-09-29T06:57:28;10.00;99.90
12688;DHT22;6408;59.388;17.798;2022-09-29T06:59:55;9.70;99.90
12688;DHT22;6408;59.388;17.798;2022-09-29T07:02:22;9.50;99.90
12688;DHT22;6408;59.388;17.798;2022-09-29T07:04:51;9.40;99.90
12688;DHT22;6408;59.388;17.798;2022-09-29T07:07:18;9.40;99.90
12688;DHT22;6408;59.388;17.798;2022-09-29T07:09:45;9.30;99.90
12688;DHT22;6408;59.388;17.798;2022-09-29T07:12:12;9.20;99.90
12688;DHT22;6408;59.388;17.798;2022-09-29T07:14:39;9.10;99.90
12688;DHT22;6408;59.388;17.798;2022-09-29T07:17:06;9.00;99.90
12688;DHT22;6408;59.388;17.798;2022-09-29T07:19:34;9.10;99.90
12688;DHT22;6408;59.388;17.798;2022-09-29T07:22:02;9.10;99.90
12688;DHT22;6408;59.388;17.798;2022-09-29T07:24:30;9.20;99.90
12688;DHT22;6408;59.388;17.798;2022-09-29T07:26:57;9.20;99.90
12688;DHT22;6408;59.388;17.798;2022-09-29T07:29:24;9.20;99.90
12688;DHT22;6408;59.388;17.798;2022-09-29T07:31:51;9.10;99.90
12688;DHT22;6408;59.388;17.798;2022-09-29T07:34:20;9.20;99.90
12688;DHT22;6408;59.388;17.798;2022-09-29T07:36:47;9.20;99.90
12688;DHT22;6408;59.388;17.798;2022-09-29T07:39:16;9.30;99.90
12688;DHT22;6408;59.388;17.798;2022-09-29T07:41:45;9.50;99.90
12688;DHT22;6408;59.388;17.798;2022-09-29T07:44:12;9.80;99.90
12688;DHT22;6408;59.388;17.798;2022-09-29T07:46:40;10.10;99.90
12688;DHT22;6408;59.388;17.798;2022-09-29T07:49:07;10.50;99.90
12688;DHT22;6408;59.388;17.798;2022-09-29T07:51:35;10.80;99.90
12688;DHT22;6408;59.388;17.798;2022-09-29T07:54:02;11.10;99.90
12688;DHT22;6408;59.388;17.798;2022-09-29T07:56:32;11.30;99.90
12688;DHT22;6408;59.388;17.798;2022-09-29T07:59:00;12.30;99.90
12688;DHT22;6408;59.388;17.798;2022-09-29T08:01:28;14.30;99.90
12688;DHT22;6408;59.388;17.798;2022-09-29T08:03:56;15.90;99.90
12688;DHT22;6408;59.388;17.798;2022-09-29T08:06:25;16.30;99.90
12688;DHT22;6408;59.388;17.798;2022-09-29T08:08:53;15.00;99.90
12688;DHT22;6408;59.388;17.798;2022-09-29T08:11:21;13.30;99.90
12688;DHT22;6408;59.388;17.798;2022-09-29T08:13:51;12.20;99.90
12688;DHT22;6408;59.388;17.798;2022-09-29T08:16:19;11.40;99.90
12688;DHT22;6408;59.388;17.798;2022-09-29T08:18:47;10.90;99.90
12688;DHT22;6408;59.388;17.798;2022-09-29T08:21:14;10.70;99.90
12688;DHT22;6408;59.388;17.798;2022-09-29T08:23:43;10.60;99.90
12688;DHT22;6408;59.388;17.798;2022-09-29T08:26:11;10.60;99.90
12688;DHT22;6408;59.388;17.798;2022-09-29T08:28:41;10.60;99.90
12688;DHT22;6408;59.388;17.798;2022-09-29T08:31:11;10.50;99.90
12688;DHT22;6408;59.388;17.798;2022-09-29T08:33:39;10.40;99.90
12688;DHT22;6408;59.388;17.798;2022-09-29T08:36:07;10.30;99.90
12688;DHT22;6408;59.388;17.798;2022-09-29T08:38:41;10.30;99.90
12688;DHT22;6408;59.388;17.798;2022-09-29T08:41:20;10.30;99.90
12688;DHT22;6408;59.388;17.798;2022-09-29T08:43:53;10.30;99.90
12688;DHT22;6408;59.388;17.798;2022-09-29T08:46:27;10.20;99.90
12688;DHT22;6408;59.388;17.798;2022-09-29T08:49:01;10.30;99.90
12688;DHT22;6408;59.388;17.798;2022-09-29T08:51:32;10.30;99.90
12688;DHT22;6408;59.388;17.798;2022-09-29T08:54:06;10.40;99.90
12688;DHT22;6408;59.388;17.798;2022-09-29T08:56:34;10.40;99.90
12688;DHT22;6408;59.388;17.798;2022-09-29T08:59:01;10.50;99.90
12688;DHT22;6408;59.388;17.798;2022-09-29T09:01:36;10.70;99.90
12688;DHT22;6408;59.388;17.798;2022-09-29T09:07:04;10.80;99.90
12688;DHT22;6408;59.388;17.798;2022-09-29T09:09:49;10.90;99.90
12688;DHT22;6408;59.388;17.798;2022-09-29T09:15:31;10.80;99.90
12688;DHT22;6408;59.388;17.798;2022-09-29T09:18:20;10.80;99.90
12688;DHT22;6408;59.388;17.798;2022-09-29T09:20:53;10.80;99.90
12688;DHT22;6408;59.388;17.798;2022-09-29T09:23:28;10.80;99.90
12688;DHT22;6408;59.388;17.798;2022-09-29T09:26:00;10.90;99.90
12688;DHT22;6408;59.388;17.798;2022-09-29T09:28:31;10.90;99.90
12688;DHT22;6408;59.388;17.798;2022-09-29T09:31:04;10.90;99.90
12688;DHT22;6408;59.388;17.798;2022-09-29T09:33:38;10.90;99.90
12688;DHT22;6408;59.388;17.798;2022-09-29T09:36:11;10.90;99.90
12688;DHT22;6408;59.388;17.798;2022-09-29T09:38:45;11.10;99.90
12688;DHT22;6408;59.388;17.798;2022-09-29T09:41:16;11.10;99.90
12688;DHT22;6408;59.388;17.798;2022-09-29T09:43:47;11.20;99.90
12688;DHT22;6408;59.388;17.798;2022-09-29T09:46:20;11.40;99.90
12688;DHT22;6408;59.388;17.798;2022-09-29T09:48:57;11.60;99.90
12688;DHT22;6408;59.388;17.798;2022-09-29T09:51:40;11.80;99.90
12688;DHT22;6408;59.388;17.798;2022-09-29T09:54:13;12.20;99.90
12688;DHT22;6408;59.388;17.798;2022-09-29T09:56:51;12.80;99.90
12688;DHT22;6408;59.388;17.798;2022-09-29T09:59:34;14.90;99.90
12688;DHT22;6408;59.388;17.798;2022-09-29T10:02:03;17.80;99.90
12688;DHT22;6408;59.388;17.798;2022-09-29T10:04:32;18.80;99.90
12688;DHT22;6408;59.388;17.798;2022-09-29T10:07:00;18.30;99.90
12688;DHT22;6408;59.388;17.798;2022-09-29T10:09:28;17.20;99.90
12688;DHT22;6408;59.388;17.798;2022-09-29T10:11:55;16.50;99.90
12688;DHT22;6408;59.388;17.798;2022-09-29T10:14:24;15.90;99.90
12688;DHT22;6408;59.388;17.798;2022-09-29T10:16:55;15.00;99.90
12688;DHT22;6408;59.388;17.798;2022-09-29T10:19:54;14.40;99.90
12688;DHT22;6408;59.388;17.798;2022-09-29T10:22:22;14.00;99.90
12688;DHT22;6408;59.388;17.798;2022-09-29T10:24:51;13.60;99.90
12688;DHT22;6408;59.388;17.798;2022-09-29T10:27:22;13.40;99.90
12688;DHT22;6408;59.388;17.798;2022-09-29T10:29:51;13.50;99.90
12688;DHT22;6408;59.388;17.798;2022-09-29T10:32:28;13.20;99.90
12688;DHT22;6408;59.388;17.798;2022-09-29T10:35:07;13.00;99.90
12688;DHT22;6408;59.388;17.798;2022-09-29T10:37:39;12.60;99.90
12688;DHT22;6408;59.388;17.798;2022-09-29T10:40:15;12.40;99.90
12688;DHT22;6408;59.388;17.798;2022-09-29T10:42:46;12.40;99.90
12688;DHT22;6408;59.388;17.798;2022-09-29T10:45:18;12.60;99.90
12688;DHT22;6408;59.388;17.798;2022-09-29T10:47:51;12.70;99.90
12688;DHT22;6408;59.388;17.798;2022-09-29T10:50:48;12.70;99.90
12688;DHT22;6408;59.388;17.798;2022-09-29T10:53:26;12.60;99.90
12688;DHT22;6408;59.388;17.798;2022-09-29T10:55:57;12.70;99.90
12688;DHT22;6408;59.388;17.798;2022-09-29T10:58:28;12.70;99.90
12688;DHT22;6408;59.388;17.798;2022-09-29T11:01:06;12.70;99.90
12688;DHT22;6408;59.388;17.798;2022-09-29T11:03:37;12.90;99.90
12688;DHT22;6408;59.388;17.798;2022-09-29T11:06:10;13.10;99.90
12688;DHT22;6408;59.388;17.798;2022-09-29T11:08:59;13.30;99.90
12688;DHT22;6408;59.388;17.798;2022-09-29T11:11:29;13.30;99.90
12688;DHT22;6408;59.388;17.798;2022-09-29T11:13:57;13.40;99.90
12688;DHT22;6408;59.388;17.798;2022-09-29T11:16:30;13.70;99.90
12688;DHT22;6408;59.388;17.798;2022-09-29T11:19:01;13.80;99.90
12688;DHT22;6408;59.388;17.798;2022-09-29T11:22:21;14.00;99.90
12688;DHT22;6408;59.388;17.798;2022-09-29T11:25:35;13.60;99.90
12688;DHT22;6408;59.388;17.798;2022-09-29T11:31:19;14.10;99.90
12688;DHT22;6408;59.388;17.798;2022-09-29T11:33:56;13.80;99.90
12688;DHT22;6408;59.388;17.798;2022-09-29T11:36:34;13.50;99.90
12688;DHT22;6408;59.388;17.798;2022-09-29T11:39:24;13.10;99.90
12688;DHT22;6408;59.388;17.798;2022-09-29T11:42:15;12.80;99.90
12688;DHT22;6408;59.388;17.798;2022-09-29T11:44:58;12.50;99.90
12688;DHT22;6408;59.388;17.798;2022-09-29T11:50:31;12.10;99.90
12688;DHT22;6408;59.388;17.798;2022-09-29T11:53:17;12.00;99.90
12688;DHT22;6408;59.388;17.798;2022-09-29T11:55:59;11.90;99.90
12688;DHT22;6408;59.388;17.798;2022-09-29T11:58:43;11.80;99.90
12688;DHT22;6408;59.388;17.798;2022-09-29T12:01:24;11.80;99.90
12688;DHT22;6408;59.388;17.798;2022-09-29T12:04:08;11.70;99.90
12688;DHT22;6408;59.388;17.798;2022-09-29T12:06:52;11.70;99.90
12688;DHT22;6408;59.388;17.798;2022-09-29T12:09:42;11.80;99.90
12688;DHT22;6408;59.388;17.798;2022-09-29T12:12:26;11.80;99.90
12688;DHT22;6408;59.388;17.798;2022-09-29T12:15:11;11.80;99.90
12688;DHT22;6408;59.388;17.798;2022-09-29T12:17:46;11.90;99.90
12688;DHT22;6408;59.388;17.798;2022-09-29T12:20:18;12.00;99.90
12688;DHT22;6408;59.388;17.798;2022-09-29T12:22:49;12.10;99.90
12688;DHT22;6408;59.388;17.798;2022-09-29T12:25:21;12.10;99.90
12688;DHT22;6408;59.388;17.798;2022-09-29T12:27:53;12.20;99.90
12688;DHT22;6408;59.388;17.798;2022-09-29T12:30:24;12.30;99.90
12688;DHT22;6408;59.388;17.798;2022-09-29T12:32:59;12.40;99.90
12688;DHT22;6408;59.388;17.798;2022-09-29T12:35:33;12.40;99.90
12688;DHT22;6408;59.388;17.798;2022-09-29T12:38:11;12.40;99.90
12688;DHT22;6408;59.388;17.798;2022-09-29T12:40:43;12.40;99.90
12688;DHT22;6408;59.388;17.798;2022-09-29T12:43:18;12.30;99.90
12688;DHT22;6408;59.388;17.798;2022-09-29T12:45:55;12.40;99.90
12688;DHT22;6408;59.388;17.798;2022-09-29T12:48:39;12.30;99.90
12688;DHT22;6408;59.388;17.798;2022-09-29T12:51:15;12.40;99.90
12688;DHT22;6408;59.388;17.798;2022-09-29T12:53:53;12.40;99.90
12688;DHT22;6408;59.388;17.798;2022-09-29T12:56:29;12.40;99.90
12688;DHT22;6408;59.388;17.798;2022-09-29T12:59:04;12.30;99.90
12688;DHT22;6408;59.388;17.798;2022-09-29T13:01:35;12.30;99.90
12688;DHT22;6408;59.388;17.798;2022-09-29T13:04:47;12.30;99.90
12688;DHT22;6408;59.388;17.798;2022-09-29T13:07:47;12.20;99.90
12688;DHT22;6408;59.388;17.798;2022-09-29T13:10:38;12.20;99.90
12688;DHT22;6408;59.388;17.798;2022-09-29T13:13:33;12.20;99.90
12688;DHT22;6408;59.388;17.798;2022-09-29T13:16:16;12.20;99.90
12688;DHT22;6408;59.388;17.798;2022-09-29T13:19:12;12.20;99.90
12688;DHT22;6408;59.388;17.798;2022-09-29T13:21:55;12.30;99.90
12688;DHT22;6408;59.388;17.798;2022-09-29T13:24:34;12.40;99.90
12688;DHT22;6408;59.388;17.798;2022-09-29T13:27:15;12.30;99.90
12688;DHT22;6408;59.388;17.798;2022-09-29T13:29:47;12.20;99.90
12688;DHT22;6408;59.388;17.798;2022-09-29T13:32:17;12.10;99.90
12688;DHT22;6408;59.388;17.798;2022-09-29T13:34:50;12.10;99.90
12688;DHT22;6408;59.388;17.798;2022-09-29T13:37:20;12.10;99.90
12688;DHT22;6408;59.388;17.798;2022-09-29T13:39:55;12.20;99.90
12688;DHT22;6408;59.388;17.798;2022-09-29T13:42:38;12.10;99.90
12688;DHT22;6408;59.388;17.798;2022-09-29T13:48:02;12.10;99.90
12688;DHT22;6408;59.388;17.798;2022-09-29T13:50:50;12.00;99.90
12688;DHT22;6408;59.388;17.798;2022-09-29T13:53:33;12.00;99.90
12688;DHT22;6408;59.388;17.798;2022-09-29T13:56:10;12.00;99.90
12688;DHT22;6408;59.388;17.798;2022-09-29T13:58:57;12.00;99.90
12688;DHT22;6408;59.388;17.798;2022-09-29T14:01:31;11.90;99.90
12688;DHT22;6408;59.388;17.798;2022-09-29T14:04:33;11.70;99.90
12688;DHT22;6408;59.388;17.798;2022-09-29T14:07:02;11.60;99.90
12688;DHT22;6408;59.388;17.798;2022-09-29T14:09:32;11.60;99.90
12688;DHT22;6408;59.388;17.798;2022-09-29T14:12:04;11.50;99.90
12688;DHT22;6408;59.388;17.798;2022-09-29T14:14:36;11.50;99.90
12688;DHT22;6408;59.388;17.798;2022-09-29T14:17:10;11.40;99.90
12688;DHT22;6408;59.388;17.798;2022-09-29T14:19:47;11.40;99.90
12688;DHT22;6408;59.388;17.798;2022-09-29T14:22:52;11.40;99.90
12688;DHT22;6408;59.388;17.798;2022-09-29T14:25:47;11.30;99.90
12688;DHT22;6408;59.388;17.798;2022-09-29T14:28:21;11.30;99.90
12688;DHT22;6408;59.388;17.798;2022-09-29T14:30:51;11.30;99.90
12688;DHT22;6408;59.388;17.798;2022-09-29T14:33:22;11.30;99.90
12688;DHT22;6408;59.388;17.798;2022-09-29T14:36:01;11.30;99.90
12688;DHT22;6408;59.388;17.798;2022-09-29T14:38:31;11.30;99.90
12688;DHT22;6408;59.388;17.798;2022-09-29T14:41:02;11.30;99.90
12688;DHT22;6408;59.388;17.798;2022-09-29T14:43:37;11.30;99.90
12688;DHT22;6408;59.388;17.798;2022-09-29T14:46:27;11.30;99.90
12688;DHT22;6408;59.388;17.798;2022-09-29T14:49:28;11.30;99.90
12688;DHT22;6408;59.388;17.798;2022-09-29T14:52:26;11.40;99.90
12688;DHT22;6408;59.388;17.798;2022-09-29T14:55:03;11.40;99.90
12688;DHT22;6408;59.388;17.798;2022-09-29T14:57:44;11.40;99.90
12688;DHT22;6408;59.388;17.798;2022-09-29T15:00:18;11.40;99.90
12688;DHT22;6408;59.388;17.798;2022-09-29T15:02:48;11.50;99.90
12688;DHT22;6408;59.388;17.798;2022-09-29T15:05:25;11.50;99.90
12688;DHT22;6408;59.388;17.798;2022-09-29T15:07:55;11.40;99.90
12688;DHT22;6408;59.388;17.798;2022-09-29T15:10:24;11.30;99.90
12688;DHT22;6408;59.388;17.798;2022-09-29T15:12:52;11.20;99.90
12688;DHT22;6408;59.388;17.798;2022-09-29T15:15:40;11.20;99.90
12688;DHT22;6408;59.388;17.798;2022-09-29T15:18:24;11.10;99.90
12688;DHT22;6408;59.388;17.798;2022-09-29T15:20:59;11.10;99.90
12688;DHT22;6408;59.388;17.798;2022-09-29T15:23:54;11.00;99.90
12688;DHT22;6408;59.388;17.798;2022-09-29T15:26:26;10.90;99.90
12688;DHT22;6408;59.388;17.798;2022-09-29T15:28:56;10.80;99.90
12688;DHT22;6408;59.388;17.798;2022-09-29T15:31:27;10.70;99.90
12688;DHT22;6408;59.388;17.798;2022-09-29T15:33:58;10.60;99.90
12688;DHT22;6408;59.388;17.798;2022-09-29T15:36:32;10.60;99.90
12688;DHT22;6408;59.388;17.798;2022-09-29T15:39:04;10.60;99.90
12688;DHT22;6408;59.388;17.798;2022-09-29T15:41:33;10.50;99.90
12688;DHT22;6408;59.388;17.798;2022-09-29T15:44:07;10.50;99.90
12688;DHT22;6408;59.388;17.798;2022-09-29T15:46:46;10.40;99.90
12688;DHT22;6408;59.388;17.798;2022-09-29T15:49:17;10.30;99.90
12688;DHT22;6408;59.388;17.798;2022-09-29T15:51:55;10.30;99.90
12688;DHT22;6408;59.388;17.798;2022-09-29T15:54:25;10.20;99.90
12688;DHT22;6408;59.388;17.798;2022-09-29T15:56:54;10.10;99.90
12688;DHT22;6408;59.388;17.798;2022-09-29T15:59:40;10.00;99.90
12688;DHT22;6408;59.388;17.798;2022-09-29T16:02:17;10.00;99.90
12688;DHT22;6408;59.388;17.798;2022-09-29T16:04:47;9.90;99.90
12688;DHT22;6408;59.388;17.798;2022-09-29T16:07:20;9.80;99.90
12688;DHT22;6408;59.388;17.798;2022-09-29T16:09:50;9.80;99.90
12688;DHT22;6408;59.388;17.798;2022-09-29T16:12:19;9.80;99.90
12688;DHT22;6408;59.388;17.798;2022-09-29T16:14:47;9.70;99.90
12688;DHT22;6408;59.388;17.798;2022-09-29T16:17:19;9.70;99.90
12688;DHT22;6408;59.388;17.798;2022-09-29T16:19:47;9.60;99.90
12688;DHT22;6408;59.388;17.798;2022-09-29T16:22:19;9.50;99.90
12688;DHT22;6408;59.388;17.798;2022-09-29T16:25:06;9.50;99.90
12688;DHT22;6408;59.388;17.798;2022-09-29T16:27:43;9.40;99.90